<?xml version="1.0" encoding="UTF-8" standalone="no" ?>
<gpx xmlns="http://www.topografix.com/GPX/1/1" xmlns:xsi="http://www.w3.org/2001/XMLSchema-instance" xsi:schemaLocation="http://www.topografix.com/GPX/1/1 http://www.topografix.com/GPX/1/1/gpx.xsd" version="1.1" creator="VisuGPX - https://www.visugpx.com">
  <metadata>
    <name>L Aulp Du Seuil</name>
    <desc><![CDATA[grp_trc:[nouvelles]]]></desc>
  </metadata>
  <trk>
    <name><![CDATA[2 août 2021 à 19:19:07]]></name>
    <cmt><![CDATA[2 août 2021 à 19:19:07]]></cmt>
    <trkseg>
      <trkpt lat="45.67837" lon="6.31342">
        <ele>972</ele>
        <time>2021-08-02T17:19:08Z</time>
      </trkpt>
      <trkpt lat="45.67823" lon="6.31361">
        <ele>961</ele>
        <time>2021-08-02T17:19:25Z</time>
      </trkpt>
      <trkpt lat="45.67815" lon="6.3138">
        <ele>963</ele>
        <time>2021-08-02T17:19:40Z</time>
      </trkpt>
      <trkpt lat="45.67814" lon="6.31397">
        <ele>968</ele>
        <time>2021-08-02T17:19:47Z</time>
      </trkpt>
      <trkpt lat="45.67819" lon="6.31428">
        <ele>969</ele>
        <time>2021-08-02T17:20:08Z</time>
      </trkpt>
      <trkpt lat="45.67819" lon="6.31447">
        <ele>976</ele>
        <time>2021-08-02T17:20:31Z</time>
      </trkpt>
      <trkpt lat="45.67802" lon="6.31465">
        <ele>983</ele>
        <time>2021-08-02T17:21:09Z</time>
      </trkpt>
      <trkpt lat="45.67782" lon="6.31469">
        <ele>987</ele>
        <time>2021-08-02T17:21:30Z</time>
      </trkpt>
      <trkpt lat="45.67766" lon="6.31489">
        <ele>992</ele>
        <time>2021-08-02T17:21:57Z</time>
      </trkpt>
      <trkpt lat="45.67753" lon="6.31497">
        <ele>997</ele>
        <time>2021-08-02T17:22:17Z</time>
      </trkpt>
      <trkpt lat="45.67745" lon="6.31499">
        <ele>998</ele>
        <time>2021-08-02T17:22:24Z</time>
      </trkpt>
      <trkpt lat="45.6773" lon="6.31507">
        <ele>1000</ele>
        <time>2021-08-02T17:22:39Z</time>
      </trkpt>
      <trkpt lat="45.67727" lon="6.31515">
        <ele>1001</ele>
        <time>2021-08-02T17:22:45Z</time>
      </trkpt>
      <trkpt lat="45.67728" lon="6.31525">
        <ele>1005</ele>
        <time>2021-08-02T17:22:59Z</time>
      </trkpt>
      <trkpt lat="45.6773" lon="6.31542">
        <ele>1008</ele>
        <time>2021-08-02T17:23:13Z</time>
      </trkpt>
      <trkpt lat="45.67739" lon="6.31559">
        <ele>1010</ele>
        <time>2021-08-02T17:23:26Z</time>
      </trkpt>
      <trkpt lat="45.67742" lon="6.31568">
        <ele>1010</ele>
        <time>2021-08-02T17:23:31Z</time>
      </trkpt>
      <trkpt lat="45.67754" lon="6.31607">
        <ele>1017</ele>
        <time>2021-08-02T17:24:05Z</time>
      </trkpt>
      <trkpt lat="45.67757" lon="6.31637">
        <ele>1023</ele>
        <time>2021-08-02T17:24:33Z</time>
      </trkpt>
      <trkpt lat="45.67758" lon="6.31647">
        <ele>1024</ele>
        <time>2021-08-02T17:24:38Z</time>
      </trkpt>
      <trkpt lat="45.67759" lon="6.31669">
        <ele>1026</ele>
        <time>2021-08-02T17:24:52Z</time>
      </trkpt>
      <trkpt lat="45.67754" lon="6.31691">
        <ele>1028</ele>
        <time>2021-08-02T17:25:04Z</time>
      </trkpt>
      <trkpt lat="45.67754" lon="6.31702">
        <ele>1029</ele>
        <time>2021-08-02T17:25:10Z</time>
      </trkpt>
      <trkpt lat="45.67753" lon="6.31713">
        <ele>1031</ele>
        <time>2021-08-02T17:25:17Z</time>
      </trkpt>
      <trkpt lat="45.67753" lon="6.31722">
        <ele>1031</ele>
        <time>2021-08-02T17:25:21Z</time>
      </trkpt>
      <trkpt lat="45.67753" lon="6.31729">
        <ele>1032</ele>
        <time>2021-08-02T17:25:26Z</time>
      </trkpt>
      <trkpt lat="45.67751" lon="6.31738">
        <ele>1034</ele>
        <time>2021-08-02T17:25:34Z</time>
      </trkpt>
      <trkpt lat="45.67753" lon="6.31748">
        <ele>1034</ele>
        <time>2021-08-02T17:25:39Z</time>
      </trkpt>
      <trkpt lat="45.67756" lon="6.31755">
        <ele>1035</ele>
        <time>2021-08-02T17:25:44Z</time>
      </trkpt>
      <trkpt lat="45.67758" lon="6.31762">
        <ele>1035</ele>
        <time>2021-08-02T17:25:48Z</time>
      </trkpt>
      <trkpt lat="45.67761" lon="6.3177">
        <ele>1035</ele>
        <time>2021-08-02T17:25:53Z</time>
      </trkpt>
      <trkpt lat="45.67762" lon="6.31783">
        <ele>1036</ele>
        <time>2021-08-02T17:26:00Z</time>
      </trkpt>
      <trkpt lat="45.67765" lon="6.31791">
        <ele>1036</ele>
        <time>2021-08-02T17:26:04Z</time>
      </trkpt>
      <trkpt lat="45.67773" lon="6.31804">
        <ele>1039</ele>
        <time>2021-08-02T17:26:15Z</time>
      </trkpt>
      <trkpt lat="45.67776" lon="6.31812">
        <ele>1040</ele>
        <time>2021-08-02T17:26:22Z</time>
      </trkpt>
      <trkpt lat="45.67781" lon="6.31825">
        <ele>1043</ele>
        <time>2021-08-02T17:26:35Z</time>
      </trkpt>
      <trkpt lat="45.67799" lon="6.31847">
        <ele>1045</ele>
        <time>2021-08-02T17:26:54Z</time>
      </trkpt>
      <trkpt lat="45.67802" lon="6.31857">
        <ele>1046</ele>
        <time>2021-08-02T17:27:01Z</time>
      </trkpt>
      <trkpt lat="45.67807" lon="6.31865">
        <ele>1048</ele>
        <time>2021-08-02T17:27:08Z</time>
      </trkpt>
      <trkpt lat="45.67829" lon="6.31893">
        <ele>1052</ele>
        <time>2021-08-02T17:27:35Z</time>
      </trkpt>
      <trkpt lat="45.67836" lon="6.319">
        <ele>1052</ele>
        <time>2021-08-02T17:27:41Z</time>
      </trkpt>
      <trkpt lat="45.67844" lon="6.31905">
        <ele>1052</ele>
        <time>2021-08-02T17:27:47Z</time>
      </trkpt>
      <trkpt lat="45.67858" lon="6.3191">
        <ele>1052</ele>
        <time>2021-08-02T17:27:57Z</time>
      </trkpt>
      <trkpt lat="45.67873" lon="6.31918">
        <ele>1051</ele>
        <time>2021-08-02T17:28:08Z</time>
      </trkpt>
      <trkpt lat="45.67881" lon="6.31923">
        <ele>1051</ele>
        <time>2021-08-02T17:28:13Z</time>
      </trkpt>
      <trkpt lat="45.67887" lon="6.31928">
        <ele>1050</ele>
        <time>2021-08-02T17:28:17Z</time>
      </trkpt>
      <trkpt lat="45.67892" lon="6.31933">
        <ele>1050</ele>
        <time>2021-08-02T17:28:21Z</time>
      </trkpt>
      <trkpt lat="45.67897" lon="6.31938">
        <ele>1049</ele>
        <time>2021-08-02T17:28:26Z</time>
      </trkpt>
      <trkpt lat="45.67903" lon="6.31941">
        <ele>1048</ele>
        <time>2021-08-02T17:28:31Z</time>
      </trkpt>
      <trkpt lat="45.6791" lon="6.31946">
        <ele>1048</ele>
        <time>2021-08-02T17:28:35Z</time>
      </trkpt>
      <trkpt lat="45.67915" lon="6.31951">
        <ele>1047</ele>
        <time>2021-08-02T17:28:39Z</time>
      </trkpt>
      <trkpt lat="45.67921" lon="6.31951">
        <ele>1048</ele>
        <time>2021-08-02T17:28:43Z</time>
      </trkpt>
      <trkpt lat="45.67926" lon="6.31952">
        <ele>1048</ele>
        <time>2021-08-02T17:28:49Z</time>
      </trkpt>
      <trkpt lat="45.67932" lon="6.31951">
        <ele>1049</ele>
        <time>2021-08-02T17:28:54Z</time>
      </trkpt>
      <trkpt lat="45.6794" lon="6.31936">
        <ele>1050</ele>
        <time>2021-08-02T17:29:04Z</time>
      </trkpt>
      <trkpt lat="45.67945" lon="6.31936">
        <ele>1052</ele>
        <time>2021-08-02T17:29:10Z</time>
      </trkpt>
      <trkpt lat="45.67958" lon="6.3194">
        <ele>1054</ele>
        <time>2021-08-02T17:29:22Z</time>
      </trkpt>
      <trkpt lat="45.67966" lon="6.31941">
        <ele>1055</ele>
        <time>2021-08-02T17:29:31Z</time>
      </trkpt>
      <trkpt lat="45.67972" lon="6.31944">
        <ele>1055</ele>
        <time>2021-08-02T17:29:37Z</time>
      </trkpt>
      <trkpt lat="45.67983" lon="6.3195">
        <ele>1057</ele>
        <time>2021-08-02T17:29:48Z</time>
      </trkpt>
      <trkpt lat="45.67989" lon="6.31951">
        <ele>1058</ele>
        <time>2021-08-02T17:29:53Z</time>
      </trkpt>
      <trkpt lat="45.67993" lon="6.31947">
        <ele>1058</ele>
        <time>2021-08-02T17:29:56Z</time>
      </trkpt>
      <trkpt lat="45.67997" lon="6.31943">
        <ele>1059</ele>
        <time>2021-08-02T17:29:59Z</time>
      </trkpt>
      <trkpt lat="45.68" lon="6.31935">
        <ele>1059</ele>
        <time>2021-08-02T17:30:04Z</time>
      </trkpt>
      <trkpt lat="45.68004" lon="6.3193">
        <ele>1060</ele>
        <time>2021-08-02T17:30:09Z</time>
      </trkpt>
      <trkpt lat="45.68018" lon="6.31923">
        <ele>1063</ele>
        <time>2021-08-02T17:30:23Z</time>
      </trkpt>
      <trkpt lat="45.6803" lon="6.31922">
        <ele>1065</ele>
        <time>2021-08-02T17:30:34Z</time>
      </trkpt>
      <trkpt lat="45.6804" lon="6.31916">
        <ele>1068</ele>
        <time>2021-08-02T17:30:46Z</time>
      </trkpt>
      <trkpt lat="45.68075" lon="6.31913">
        <ele>1073</ele>
        <time>2021-08-02T17:31:22Z</time>
      </trkpt>
      <trkpt lat="45.68081" lon="6.31912">
        <ele>1074</ele>
        <time>2021-08-02T17:31:27Z</time>
      </trkpt>
      <trkpt lat="45.68086" lon="6.31907">
        <ele>1074</ele>
        <time>2021-08-02T17:31:32Z</time>
      </trkpt>
      <trkpt lat="45.68094" lon="6.31905">
        <ele>1075</ele>
        <time>2021-08-02T17:31:40Z</time>
      </trkpt>
      <trkpt lat="45.68099" lon="6.31906">
        <ele>1076</ele>
        <time>2021-08-02T17:31:48Z</time>
      </trkpt>
      <trkpt lat="45.68105" lon="6.31906">
        <ele>1077</ele>
        <time>2021-08-02T17:31:54Z</time>
      </trkpt>
      <trkpt lat="45.68118" lon="6.3191">
        <ele>1079</ele>
        <time>2021-08-02T17:32:07Z</time>
      </trkpt>
      <trkpt lat="45.68137" lon="6.31921">
        <ele>1082</ele>
        <time>2021-08-02T17:32:29Z</time>
      </trkpt>
      <trkpt lat="45.68148" lon="6.31923">
        <ele>1084</ele>
        <time>2021-08-02T17:32:40Z</time>
      </trkpt>
      <trkpt lat="45.68166" lon="6.31914">
        <ele>1085</ele>
        <time>2021-08-02T17:32:55Z</time>
      </trkpt>
      <trkpt lat="45.68173" lon="6.31913">
        <ele>1085</ele>
        <time>2021-08-02T17:33:00Z</time>
      </trkpt>
      <trkpt lat="45.68182" lon="6.31909">
        <ele>1084</ele>
        <time>2021-08-02T17:33:09Z</time>
      </trkpt>
      <trkpt lat="45.6819" lon="6.31907">
        <ele>1085</ele>
        <time>2021-08-02T17:33:21Z</time>
      </trkpt>
      <trkpt lat="45.68189" lon="6.31904">
        <ele>1085</ele>
        <time>2021-08-02T17:35:19Z</time>
      </trkpt>
      <trkpt lat="45.68183" lon="6.31909">
        <ele>1084</ele>
        <time>2021-08-02T17:37:26Z</time>
      </trkpt>
      <trkpt lat="45.68211" lon="6.31922">
        <ele>1090</ele>
        <time>2021-08-02T17:38:21Z</time>
      </trkpt>
      <trkpt lat="45.6825" lon="6.3191">
        <ele>1100</ele>
        <time>2021-08-02T17:40:02Z</time>
      </trkpt>
      <trkpt lat="45.68265" lon="6.31911">
        <ele>1112</ele>
        <time>2021-08-02T17:41:33Z</time>
      </trkpt>
      <trkpt lat="45.68258" lon="6.3191">
        <ele>1113</ele>
        <time>2021-08-02T17:41:40Z</time>
      </trkpt>
      <trkpt lat="45.68258" lon="6.31924">
        <ele>1115</ele>
        <time>2021-08-02T17:41:52Z</time>
      </trkpt>
      <trkpt lat="45.68281" lon="6.31956">
        <ele>1119</ele>
        <time>2021-08-02T17:42:23Z</time>
      </trkpt>
      <trkpt lat="45.68314" lon="6.31968">
        <ele>1132</ele>
        <time>2021-08-02T17:43:17Z</time>
      </trkpt>
      <trkpt lat="45.68329" lon="6.31949">
        <ele>1137</ele>
        <time>2021-08-02T17:43:33Z</time>
      </trkpt>
      <trkpt lat="45.68345" lon="6.31953">
        <ele>1141</ele>
        <time>2021-08-02T17:43:47Z</time>
      </trkpt>
      <trkpt lat="45.68367" lon="6.3194">
        <ele>1147</ele>
        <time>2021-08-02T17:44:14Z</time>
      </trkpt>
      <trkpt lat="45.68383" lon="6.31939">
        <ele>1151</ele>
        <time>2021-08-02T17:44:35Z</time>
      </trkpt>
      <trkpt lat="45.68399" lon="6.31952">
        <ele>1156</ele>
        <time>2021-08-02T17:44:56Z</time>
      </trkpt>
      <trkpt lat="45.68415" lon="6.31951">
        <ele>1158</ele>
        <time>2021-08-02T17:45:09Z</time>
      </trkpt>
      <trkpt lat="45.68453" lon="6.31936">
        <ele>1167</ele>
        <time>2021-08-02T17:45:54Z</time>
      </trkpt>
      <trkpt lat="45.68469" lon="6.31934">
        <ele>1172</ele>
        <time>2021-08-02T17:46:20Z</time>
      </trkpt>
      <trkpt lat="45.68491" lon="6.31931">
        <ele>1185</ele>
        <time>2021-08-02T17:48:08Z</time>
      </trkpt>
      <trkpt lat="45.68506" lon="6.31936">
        <ele>1192</ele>
        <time>2021-08-02T17:48:35Z</time>
      </trkpt>
      <trkpt lat="45.68537" lon="6.31963">
        <ele>1201</ele>
        <time>2021-08-02T17:49:22Z</time>
      </trkpt>
      <trkpt lat="45.68555" lon="6.31962">
        <ele>1208</ele>
        <time>2021-08-02T17:49:54Z</time>
      </trkpt>
      <trkpt lat="45.6857" lon="6.31957">
        <ele>1210</ele>
        <time>2021-08-02T17:50:07Z</time>
      </trkpt>
      <trkpt lat="45.68583" lon="6.31964">
        <ele>1215</ele>
        <time>2021-08-02T17:50:44Z</time>
      </trkpt>
      <trkpt lat="45.68599" lon="6.31981">
        <ele>1225</ele>
        <time>2021-08-02T17:51:24Z</time>
      </trkpt>
      <trkpt lat="45.68643" lon="6.31979">
        <ele>1236</ele>
        <time>2021-08-02T17:52:15Z</time>
      </trkpt>
      <trkpt lat="45.68627" lon="6.31967">
        <ele>1248</ele>
        <time>2021-08-02T17:53:14Z</time>
      </trkpt>
      <trkpt lat="45.68606" lon="6.31981">
        <ele>1253</ele>
        <time>2021-08-02T17:53:39Z</time>
      </trkpt>
      <trkpt lat="45.68611" lon="6.32003">
        <ele>1258</ele>
        <time>2021-08-02T17:54:25Z</time>
      </trkpt>
      <trkpt lat="45.68637" lon="6.32027">
        <ele>1267</ele>
        <time>2021-08-02T17:55:09Z</time>
      </trkpt>
      <trkpt lat="45.68673" lon="6.32065">
        <ele>1281</ele>
        <time>2021-08-02T17:56:13Z</time>
      </trkpt>
      <trkpt lat="45.68707" lon="6.32031">
        <ele>1284</ele>
        <time>2021-08-02T17:57:13Z</time>
      </trkpt>
      <trkpt lat="45.68715" lon="6.32051">
        <ele>1296</ele>
        <time>2021-08-02T17:58:08Z</time>
      </trkpt>
      <trkpt lat="45.68724" lon="6.32066">
        <ele>1300</ele>
        <time>2021-08-02T17:58:30Z</time>
      </trkpt>
      <trkpt lat="45.68753" lon="6.32082">
        <ele>1312</ele>
        <time>2021-08-02T17:59:29Z</time>
      </trkpt>
      <trkpt lat="45.68746" lon="6.32112">
        <ele>1335</ele>
        <time>2021-08-02T18:01:30Z</time>
      </trkpt>
      <trkpt lat="45.68738" lon="6.32125">
        <ele>1337</ele>
        <time>2021-08-02T18:01:46Z</time>
      </trkpt>
      <trkpt lat="45.68715" lon="6.32139">
        <ele>1342</ele>
        <time>2021-08-02T18:02:15Z</time>
      </trkpt>
      <trkpt lat="45.68701" lon="6.32133">
        <ele>1341</ele>
        <time>2021-08-02T18:02:26Z</time>
      </trkpt>
      <trkpt lat="45.68688" lon="6.32127">
        <ele>1344</ele>
        <time>2021-08-02T18:02:47Z</time>
      </trkpt>
      <trkpt lat="45.68673" lon="6.32139">
        <ele>1350</ele>
        <time>2021-08-02T18:03:15Z</time>
      </trkpt>
      <trkpt lat="45.68684" lon="6.32156">
        <ele>1354</ele>
        <time>2021-08-02T18:03:39Z</time>
      </trkpt>
      <trkpt lat="45.68696" lon="6.32165">
        <ele>1357</ele>
        <time>2021-08-02T18:03:55Z</time>
      </trkpt>
      <trkpt lat="45.68711" lon="6.32162">
        <ele>1359</ele>
        <time>2021-08-02T18:04:17Z</time>
      </trkpt>
      <trkpt lat="45.68736" lon="6.32165">
        <ele>1366</ele>
        <time>2021-08-02T18:04:52Z</time>
      </trkpt>
      <trkpt lat="45.68746" lon="6.32179">
        <ele>1370</ele>
        <time>2021-08-02T18:05:14Z</time>
      </trkpt>
      <trkpt lat="45.68785" lon="6.32192">
        <ele>1385</ele>
        <time>2021-08-02T18:06:27Z</time>
      </trkpt>
      <trkpt lat="45.68823" lon="6.32227">
        <ele>1395</ele>
        <time>2021-08-02T18:07:21Z</time>
      </trkpt>
      <trkpt lat="45.68806" lon="6.32237">
        <ele>1411</ele>
        <time>2021-08-02T18:08:41Z</time>
      </trkpt>
      <trkpt lat="45.68792" lon="6.3225">
        <ele>1416</ele>
        <time>2021-08-02T18:09:06Z</time>
      </trkpt>
      <trkpt lat="45.68765" lon="6.32258">
        <ele>1423</ele>
        <time>2021-08-02T18:09:43Z</time>
      </trkpt>
      <trkpt lat="45.68754" lon="6.32256">
        <ele>1423</ele>
        <time>2021-08-02T18:09:55Z</time>
      </trkpt>
      <trkpt lat="45.68742" lon="6.32259">
        <ele>1423</ele>
        <time>2021-08-02T18:10:04Z</time>
      </trkpt>
      <trkpt lat="45.68731" lon="6.32262">
        <ele>1427</ele>
        <time>2021-08-02T18:10:19Z</time>
      </trkpt>
      <trkpt lat="45.68724" lon="6.32268">
        <ele>1429</ele>
        <time>2021-08-02T18:10:33Z</time>
      </trkpt>
      <trkpt lat="45.68715" lon="6.32274">
        <ele>1432</ele>
        <time>2021-08-02T18:10:46Z</time>
      </trkpt>
      <trkpt lat="45.68704" lon="6.32287">
        <ele>1435</ele>
        <time>2021-08-02T18:11:02Z</time>
      </trkpt>
      <trkpt lat="45.68705" lon="6.32301">
        <ele>1438</ele>
        <time>2021-08-02T18:11:24Z</time>
      </trkpt>
      <trkpt lat="45.68709" lon="6.32312">
        <ele>1441</ele>
        <time>2021-08-02T18:11:35Z</time>
      </trkpt>
      <trkpt lat="45.68717" lon="6.32317">
        <ele>1443</ele>
        <time>2021-08-02T18:11:50Z</time>
      </trkpt>
      <trkpt lat="45.68726" lon="6.32311">
        <ele>1445</ele>
        <time>2021-08-02T18:12:03Z</time>
      </trkpt>
      <trkpt lat="45.68746" lon="6.32313">
        <ele>1450</ele>
        <time>2021-08-02T18:12:32Z</time>
      </trkpt>
      <trkpt lat="45.68758" lon="6.3232">
        <ele>1454</ele>
        <time>2021-08-02T18:12:52Z</time>
      </trkpt>
      <trkpt lat="45.68781" lon="6.32323">
        <ele>1458</ele>
        <time>2021-08-02T18:13:21Z</time>
      </trkpt>
      <trkpt lat="45.68796" lon="6.32336">
        <ele>1464</ele>
        <time>2021-08-02T18:13:53Z</time>
      </trkpt>
      <trkpt lat="45.68813" lon="6.3234">
        <ele>1468</ele>
        <time>2021-08-02T18:14:21Z</time>
      </trkpt>
      <trkpt lat="45.68828" lon="6.32357">
        <ele>1471</ele>
        <time>2021-08-02T18:14:40Z</time>
      </trkpt>
      <trkpt lat="45.68835" lon="6.32375">
        <ele>1475</ele>
        <time>2021-08-02T18:15:06Z</time>
      </trkpt>
      <trkpt lat="45.68845" lon="6.32393">
        <ele>1483</ele>
        <time>2021-08-02T18:15:52Z</time>
      </trkpt>
      <trkpt lat="45.68855" lon="6.3241">
        <ele>1488</ele>
        <time>2021-08-02T18:16:23Z</time>
      </trkpt>
      <trkpt lat="45.68865" lon="6.32424">
        <ele>1496</ele>
        <time>2021-08-02T18:17:05Z</time>
      </trkpt>
      <trkpt lat="45.68872" lon="6.32432">
        <ele>1499</ele>
        <time>2021-08-02T18:17:23Z</time>
      </trkpt>
      <trkpt lat="45.6888" lon="6.32437">
        <ele>1501</ele>
        <time>2021-08-02T18:17:33Z</time>
      </trkpt>
      <trkpt lat="45.68887" lon="6.32445">
        <ele>1503</ele>
        <time>2021-08-02T18:17:45Z</time>
      </trkpt>
      <trkpt lat="45.68894" lon="6.32453">
        <ele>1505</ele>
        <time>2021-08-02T18:17:58Z</time>
      </trkpt>
      <trkpt lat="45.68905" lon="6.3247">
        <ele>1506</ele>
        <time>2021-08-02T18:18:11Z</time>
      </trkpt>
      <trkpt lat="45.68913" lon="6.32473">
        <ele>1506</ele>
        <time>2021-08-02T18:18:17Z</time>
      </trkpt>
      <trkpt lat="45.68917" lon="6.32481">
        <ele>1508</ele>
        <time>2021-08-02T18:18:25Z</time>
      </trkpt>
      <trkpt lat="45.68922" lon="6.32497">
        <ele>1510</ele>
        <time>2021-08-02T18:18:43Z</time>
      </trkpt>
      <trkpt lat="45.68927" lon="6.32508">
        <ele>1514</ele>
        <time>2021-08-02T18:19:02Z</time>
      </trkpt>
      <trkpt lat="45.68933" lon="6.32529">
        <ele>1515</ele>
        <time>2021-08-02T18:19:16Z</time>
      </trkpt>
      <trkpt lat="45.68939" lon="6.32542">
        <ele>1519</ele>
        <time>2021-08-02T18:19:33Z</time>
      </trkpt>
      <trkpt lat="45.68947" lon="6.32551">
        <ele>1521</ele>
        <time>2021-08-02T18:19:46Z</time>
      </trkpt>
      <trkpt lat="45.68954" lon="6.32552">
        <ele>1521</ele>
        <time>2021-08-02T18:19:52Z</time>
      </trkpt>
      <trkpt lat="45.68964" lon="6.3256">
        <ele>1525</ele>
        <time>2021-08-02T18:20:15Z</time>
      </trkpt>
      <trkpt lat="45.6897" lon="6.32585">
        <ele>1532</ele>
        <time>2021-08-02T18:20:45Z</time>
      </trkpt>
      <trkpt lat="45.68978" lon="6.3259">
        <ele>1535</ele>
        <time>2021-08-02T18:21:01Z</time>
      </trkpt>
      <trkpt lat="45.68983" lon="6.32604">
        <ele>1538</ele>
        <time>2021-08-02T18:21:19Z</time>
      </trkpt>
      <trkpt lat="45.68968" lon="6.32601">
        <ele>1545</ele>
        <time>2021-08-02T18:22:02Z</time>
      </trkpt>
      <trkpt lat="45.68971" lon="6.32617">
        <ele>1548</ele>
        <time>2021-08-02T18:22:21Z</time>
      </trkpt>
      <trkpt lat="45.68978" lon="6.32622">
        <ele>1550</ele>
        <time>2021-08-02T18:22:36Z</time>
      </trkpt>
      <trkpt lat="45.68984" lon="6.32637">
        <ele>1554</ele>
        <time>2021-08-02T18:22:57Z</time>
      </trkpt>
      <trkpt lat="45.68983" lon="6.32631">
        <ele>1562</ele>
        <time>2021-08-02T18:23:46Z</time>
      </trkpt>
      <trkpt lat="45.68974" lon="6.32631">
        <ele>1565</ele>
        <time>2021-08-02T18:24:04Z</time>
      </trkpt>
      <trkpt lat="45.68966" lon="6.32641">
        <ele>1567</ele>
        <time>2021-08-02T18:24:17Z</time>
      </trkpt>
      <trkpt lat="45.68966" lon="6.32653">
        <ele>1570</ele>
        <time>2021-08-02T18:24:33Z</time>
      </trkpt>
      <trkpt lat="45.68978" lon="6.32659">
        <ele>1574</ele>
        <time>2021-08-02T18:24:59Z</time>
      </trkpt>
      <trkpt lat="45.6899" lon="6.3267">
        <ele>1575</ele>
        <time>2021-08-02T18:25:14Z</time>
      </trkpt>
      <trkpt lat="45.68999" lon="6.3268">
        <ele>1579</ele>
        <time>2021-08-02T18:25:30Z</time>
      </trkpt>
      <trkpt lat="45.69009" lon="6.32682">
        <ele>1581</ele>
        <time>2021-08-02T18:25:43Z</time>
      </trkpt>
      <trkpt lat="45.69007" lon="6.3269">
        <ele>1589</ele>
        <time>2021-08-02T18:26:31Z</time>
      </trkpt>
      <trkpt lat="45.69" lon="6.32689">
        <ele>1590</ele>
        <time>2021-08-02T18:26:39Z</time>
      </trkpt>
      <trkpt lat="45.68994" lon="6.32692">
        <ele>1592</ele>
        <time>2021-08-02T18:26:46Z</time>
      </trkpt>
      <trkpt lat="45.68997" lon="6.32699">
        <ele>1596</ele>
        <time>2021-08-02T18:27:13Z</time>
      </trkpt>
      <trkpt lat="45.69002" lon="6.32709">
        <ele>1597</ele>
        <time>2021-08-02T18:27:37Z</time>
      </trkpt>
      <trkpt lat="45.69009" lon="6.32718">
        <ele>1599</ele>
        <time>2021-08-02T18:28:08Z</time>
      </trkpt>
      <trkpt lat="45.69007" lon="6.3272">
        <ele>1606</ele>
        <time>2021-08-02T18:28:50Z</time>
      </trkpt>
      <trkpt lat="45.69005" lon="6.32728">
        <ele>1607</ele>
        <time>2021-08-02T18:29:32Z</time>
      </trkpt>
      <trkpt lat="45.69018" lon="6.32744">
        <ele>1612</ele>
        <time>2021-08-02T18:30:04Z</time>
      </trkpt>
      <trkpt lat="45.69024" lon="6.32749">
        <ele>1612</ele>
        <time>2021-08-02T18:30:10Z</time>
      </trkpt>
      <trkpt lat="45.69019" lon="6.32759">
        <ele>1620</ele>
        <time>2021-08-02T18:31:00Z</time>
      </trkpt>
      <trkpt lat="45.6902" lon="6.32769">
        <ele>1623</ele>
        <time>2021-08-02T18:31:12Z</time>
      </trkpt>
      <trkpt lat="45.69029" lon="6.32785">
        <ele>1629</ele>
        <time>2021-08-02T18:31:51Z</time>
      </trkpt>
      <trkpt lat="45.69034" lon="6.32795">
        <ele>1631</ele>
        <time>2021-08-02T18:32:05Z</time>
      </trkpt>
      <trkpt lat="45.69042" lon="6.32796">
        <ele>1632</ele>
        <time>2021-08-02T18:32:18Z</time>
      </trkpt>
      <trkpt lat="45.69047" lon="6.32798">
        <ele>1636</ele>
        <time>2021-08-02T18:32:42Z</time>
      </trkpt>
      <trkpt lat="45.69053" lon="6.32801">
        <ele>1637</ele>
        <time>2021-08-02T18:32:54Z</time>
      </trkpt>
      <trkpt lat="45.69053" lon="6.32811">
        <ele>1644</ele>
        <time>2021-08-02T18:33:18Z</time>
      </trkpt>
      <trkpt lat="45.69065" lon="6.32824">
        <ele>1650</ele>
        <time>2021-08-02T18:33:54Z</time>
      </trkpt>
      <trkpt lat="45.69068" lon="6.3283">
        <ele>1652</ele>
        <time>2021-08-02T18:34:06Z</time>
      </trkpt>
      <trkpt lat="45.69073" lon="6.32835">
        <ele>1656</ele>
        <time>2021-08-02T18:34:24Z</time>
      </trkpt>
      <trkpt lat="45.69078" lon="6.32839">
        <ele>1660</ele>
        <time>2021-08-02T18:34:42Z</time>
      </trkpt>
      <trkpt lat="45.69084" lon="6.32846">
        <ele>1662</ele>
        <time>2021-08-02T18:35:00Z</time>
      </trkpt>
      <trkpt lat="45.6909" lon="6.3285">
        <ele>1663</ele>
        <time>2021-08-02T18:35:06Z</time>
      </trkpt>
      <trkpt lat="45.69097" lon="6.32852">
        <ele>1664</ele>
        <time>2021-08-02T18:35:21Z</time>
      </trkpt>
      <trkpt lat="45.69101" lon="6.32864">
        <ele>1669</ele>
        <time>2021-08-02T18:35:46Z</time>
      </trkpt>
      <trkpt lat="45.69111" lon="6.32866">
        <ele>1672</ele>
        <time>2021-08-02T18:36:10Z</time>
      </trkpt>
      <trkpt lat="45.69129" lon="6.32866">
        <ele>1677</ele>
        <time>2021-08-02T18:36:47Z</time>
      </trkpt>
      <trkpt lat="45.69125" lon="6.32873">
        <ele>1684</ele>
        <time>2021-08-02T18:37:22Z</time>
      </trkpt>
      <trkpt lat="45.69121" lon="6.3288">
        <ele>1687</ele>
        <time>2021-08-02T18:37:43Z</time>
      </trkpt>
      <trkpt lat="45.69128" lon="6.32883">
        <ele>1689</ele>
        <time>2021-08-02T18:37:53Z</time>
      </trkpt>
      <trkpt lat="45.69128" lon="6.32888">
        <ele>1697</ele>
        <time>2021-08-02T18:38:40Z</time>
      </trkpt>
      <trkpt lat="45.69123" lon="6.32895">
        <ele>1699</ele>
        <time>2021-08-02T18:38:51Z</time>
      </trkpt>
      <trkpt lat="45.69123" lon="6.32904">
        <ele>1701</ele>
        <time>2021-08-02T18:39:03Z</time>
      </trkpt>
      <trkpt lat="45.69119" lon="6.32908">
        <ele>1701</ele>
        <time>2021-08-02T18:39:39Z</time>
      </trkpt>
      <trkpt lat="45.69129" lon="6.32909">
        <ele>1704</ele>
        <time>2021-08-02T18:40:08Z</time>
      </trkpt>
      <trkpt lat="45.69136" lon="6.32905">
        <ele>1705</ele>
        <time>2021-08-02T18:40:14Z</time>
      </trkpt>
      <trkpt lat="45.6914" lon="6.32901">
        <ele>1705</ele>
        <time>2021-08-02T18:40:17Z</time>
      </trkpt>
      <trkpt lat="45.69152" lon="6.32898">
        <ele>1706</ele>
        <time>2021-08-02T18:40:29Z</time>
      </trkpt>
      <trkpt lat="45.69156" lon="6.32896">
        <ele>1706</ele>
        <time>2021-08-02T18:40:32Z</time>
      </trkpt>
      <trkpt lat="45.69161" lon="6.32891">
        <ele>1707</ele>
        <time>2021-08-02T18:40:40Z</time>
      </trkpt>
      <trkpt lat="45.69176" lon="6.32893">
        <ele>1715</ele>
        <time>2021-08-02T18:41:17Z</time>
      </trkpt>
      <trkpt lat="45.69189" lon="6.32899">
        <ele>1719</ele>
        <time>2021-08-02T18:41:40Z</time>
      </trkpt>
      <trkpt lat="45.69195" lon="6.32894">
        <ele>1721</ele>
        <time>2021-08-02T18:42:03Z</time>
      </trkpt>
      <trkpt lat="45.69203" lon="6.32892">
        <ele>1726</ele>
        <time>2021-08-02T18:42:33Z</time>
      </trkpt>
      <trkpt lat="45.69211" lon="6.32884">
        <ele>1726</ele>
        <time>2021-08-02T18:42:45Z</time>
      </trkpt>
      <trkpt lat="45.6922" lon="6.32885">
        <ele>1728</ele>
        <time>2021-08-02T18:42:57Z</time>
      </trkpt>
      <trkpt lat="45.69226" lon="6.32882">
        <ele>1729</ele>
        <time>2021-08-02T18:43:09Z</time>
      </trkpt>
      <trkpt lat="45.69236" lon="6.32884">
        <ele>1732</ele>
        <time>2021-08-02T18:43:27Z</time>
      </trkpt>
      <trkpt lat="45.69241" lon="6.32874">
        <ele>1736</ele>
        <time>2021-08-02T18:43:47Z</time>
      </trkpt>
      <trkpt lat="45.69248" lon="6.32874">
        <ele>1735</ele>
        <time>2021-08-02T18:43:59Z</time>
      </trkpt>
      <trkpt lat="45.69255" lon="6.32875">
        <ele>1735</ele>
        <time>2021-08-02T18:44:08Z</time>
      </trkpt>
      <trkpt lat="45.69262" lon="6.32876">
        <ele>1737</ele>
        <time>2021-08-02T18:44:20Z</time>
      </trkpt>
      <trkpt lat="45.69271" lon="6.32874">
        <ele>1739</ele>
        <time>2021-08-02T18:44:31Z</time>
      </trkpt>
      <trkpt lat="45.69277" lon="6.3288">
        <ele>1744</ele>
        <time>2021-08-02T18:45:05Z</time>
      </trkpt>
      <trkpt lat="45.6928" lon="6.3287">
        <ele>1746</ele>
        <time>2021-08-02T18:45:40Z</time>
      </trkpt>
      <trkpt lat="45.69285" lon="6.32866">
        <ele>1747</ele>
        <time>2021-08-02T18:46:04Z</time>
      </trkpt>
      <trkpt lat="45.69291" lon="6.32873">
        <ele>1750</ele>
        <time>2021-08-02T18:46:15Z</time>
      </trkpt>
      <trkpt lat="45.69297" lon="6.32878">
        <ele>1749</ele>
        <time>2021-08-02T18:46:27Z</time>
      </trkpt>
      <trkpt lat="45.69306" lon="6.32881">
        <ele>1750</ele>
        <time>2021-08-02T18:46:40Z</time>
      </trkpt>
      <trkpt lat="45.69318" lon="6.3288">
        <ele>1752</ele>
        <time>2021-08-02T18:47:00Z</time>
      </trkpt>
      <trkpt lat="45.69325" lon="6.32884">
        <ele>1757</ele>
        <time>2021-08-02T18:47:30Z</time>
      </trkpt>
      <trkpt lat="45.69333" lon="6.3289">
        <ele>1757</ele>
        <time>2021-08-02T18:47:44Z</time>
      </trkpt>
      <trkpt lat="45.69346" lon="6.32899">
        <ele>1761</ele>
        <time>2021-08-02T18:48:10Z</time>
      </trkpt>
      <trkpt lat="45.69353" lon="6.32898">
        <ele>1762</ele>
        <time>2021-08-02T18:48:16Z</time>
      </trkpt>
      <trkpt lat="45.69371" lon="6.32896">
        <ele>1760</ele>
        <time>2021-08-02T18:48:33Z</time>
      </trkpt>
      <trkpt lat="45.69376" lon="6.32902">
        <ele>1757</ele>
        <time>2021-08-02T18:48:47Z</time>
      </trkpt>
      <trkpt lat="45.69385" lon="6.32907">
        <ele>1755</ele>
        <time>2021-08-02T18:48:59Z</time>
      </trkpt>
      <trkpt lat="45.69391" lon="6.32905">
        <ele>1755</ele>
        <time>2021-08-02T18:49:04Z</time>
      </trkpt>
      <trkpt lat="45.69395" lon="6.3291">
        <ele>1755</ele>
        <time>2021-08-02T18:49:10Z</time>
      </trkpt>
      <trkpt lat="45.69402" lon="6.32909">
        <ele>1756</ele>
        <time>2021-08-02T18:49:17Z</time>
      </trkpt>
      <trkpt lat="45.69412" lon="6.32921">
        <ele>1760</ele>
        <time>2021-08-02T18:49:38Z</time>
      </trkpt>
      <trkpt lat="45.69417" lon="6.32927">
        <ele>1764</ele>
        <time>2021-08-02T18:49:53Z</time>
      </trkpt>
      <trkpt lat="45.69423" lon="6.32931">
        <ele>1766</ele>
        <time>2021-08-02T18:50:08Z</time>
      </trkpt>
      <trkpt lat="45.69428" lon="6.32937">
        <ele>1768</ele>
        <time>2021-08-02T18:50:24Z</time>
      </trkpt>
      <trkpt lat="45.69429" lon="6.32945">
        <ele>1772</ele>
        <time>2021-08-02T18:50:40Z</time>
      </trkpt>
      <trkpt lat="45.69443" lon="6.32951">
        <ele>1778</ele>
        <time>2021-08-02T18:51:22Z</time>
      </trkpt>
      <trkpt lat="45.69458" lon="6.32967">
        <ele>1787</ele>
        <time>2021-08-02T18:52:09Z</time>
      </trkpt>
      <trkpt lat="45.69472" lon="6.3298">
        <ele>1793</ele>
        <time>2021-08-02T18:52:44Z</time>
      </trkpt>
      <trkpt lat="45.69479" lon="6.32982">
        <ele>1795</ele>
        <time>2021-08-02T18:53:02Z</time>
      </trkpt>
      <trkpt lat="45.69492" lon="6.32993">
        <ele>1802</ele>
        <time>2021-08-02T18:53:38Z</time>
      </trkpt>
      <trkpt lat="45.69502" lon="6.33011">
        <ele>1808</ele>
        <time>2021-08-02T18:54:14Z</time>
      </trkpt>
      <trkpt lat="45.69506" lon="6.3302">
        <ele>1810</ele>
        <time>2021-08-02T18:54:26Z</time>
      </trkpt>
      <trkpt lat="45.69519" lon="6.33034">
        <ele>1813</ele>
        <time>2021-08-02T18:54:54Z</time>
      </trkpt>
      <trkpt lat="45.69522" lon="6.3304">
        <ele>1813</ele>
        <time>2021-08-02T18:54:59Z</time>
      </trkpt>
      <trkpt lat="45.69529" lon="6.3305">
        <ele>1816</ele>
        <time>2021-08-02T18:55:19Z</time>
      </trkpt>
      <trkpt lat="45.69541" lon="6.33056">
        <ele>1816</ele>
        <time>2021-08-02T18:55:36Z</time>
      </trkpt>
      <trkpt lat="45.69546" lon="6.33061">
        <ele>1816</ele>
        <time>2021-08-02T18:55:41Z</time>
      </trkpt>
      <trkpt lat="45.69547" lon="6.33066">
        <ele>1818</ele>
        <time>2021-08-02T18:56:03Z</time>
      </trkpt>
      <trkpt lat="45.69542" lon="6.33068">
        <ele>1821</ele>
        <time>2021-08-02T18:56:21Z</time>
      </trkpt>
      <trkpt lat="45.69532" lon="6.33066">
        <ele>1825</ele>
        <time>2021-08-02T18:56:39Z</time>
      </trkpt>
      <trkpt lat="45.69527" lon="6.33069">
        <ele>1828</ele>
        <time>2021-08-02T18:57:03Z</time>
      </trkpt>
      <trkpt lat="45.69521" lon="6.33068">
        <ele>1826</ele>
        <time>2021-08-02T18:59:21Z</time>
      </trkpt>
      <trkpt lat="45.69521" lon="6.33068">
        <ele>1825</ele>
        <time>2021-08-02T19:01:47Z</time>
      </trkpt>
      <trkpt lat="45.69521" lon="6.33067">
        <ele>1822</ele>
        <time>2021-08-02T19:05:51Z</time>
      </trkpt>
      <trkpt lat="45.69517" lon="6.33068">
        <ele>1820</ele>
        <time>2021-08-02T19:07:27Z</time>
      </trkpt>
      <trkpt lat="45.6952" lon="6.33067">
        <ele>1818</ele>
        <time>2021-08-02T19:10:02Z</time>
      </trkpt>
      <trkpt lat="45.6952" lon="6.3307">
        <ele>1813</ele>
        <time>2021-08-02T19:22:38Z</time>
      </trkpt>
      <trkpt lat="45.69529" lon="6.33075">
        <ele>1814</ele>
        <time>2021-08-02T19:24:49Z</time>
      </trkpt>
      <trkpt lat="45.69525" lon="6.33067">
        <ele>1814</ele>
        <time>2021-08-02T19:25:07Z</time>
      </trkpt>
      <trkpt lat="45.69523" lon="6.33072">
        <ele>1815</ele>
        <time>2021-08-02T19:26:08Z</time>
      </trkpt>
      <trkpt lat="45.69519" lon="6.33071">
        <ele>1814</ele>
        <time>2021-08-02T19:27:32Z</time>
      </trkpt>
      <trkpt lat="45.69522" lon="6.33071">
        <ele>1814</ele>
        <time>2021-08-02T19:28:50Z</time>
      </trkpt>
      <trkpt lat="45.69528" lon="6.33069">
        <ele>1813</ele>
        <time>2021-08-02T19:30:24Z</time>
      </trkpt>
      <trkpt lat="45.69531" lon="6.33071">
        <ele>1812</ele>
        <time>2021-08-02T19:30:27Z</time>
      </trkpt>
      <trkpt lat="45.69538" lon="6.33064">
        <ele>1806</ele>
        <time>2021-08-02T19:30:48Z</time>
      </trkpt>
      <trkpt lat="45.69537" lon="6.33063">
        <ele>1803</ele>
        <time>2021-08-02T19:31:03Z</time>
      </trkpt>
      <trkpt lat="45.69532" lon="6.33056">
        <ele>1804</ele>
        <time>2021-08-02T19:31:10Z</time>
      </trkpt>
      <trkpt lat="45.69528" lon="6.33051">
        <ele>1803</ele>
        <time>2021-08-02T19:31:16Z</time>
      </trkpt>
      <trkpt lat="45.6952" lon="6.33033">
        <ele>1801</ele>
        <time>2021-08-02T19:31:26Z</time>
      </trkpt>
      <trkpt lat="45.69516" lon="6.33027">
        <ele>1801</ele>
        <time>2021-08-02T19:31:30Z</time>
      </trkpt>
      <trkpt lat="45.69511" lon="6.33023">
        <ele>1799</ele>
        <time>2021-08-02T19:31:36Z</time>
      </trkpt>
      <trkpt lat="45.69502" lon="6.33001">
        <ele>1794</ele>
        <time>2021-08-02T19:31:53Z</time>
      </trkpt>
      <trkpt lat="45.69497" lon="6.32996">
        <ele>1792</ele>
        <time>2021-08-02T19:31:58Z</time>
      </trkpt>
      <trkpt lat="45.69493" lon="6.3299">
        <ele>1790</ele>
        <time>2021-08-02T19:32:02Z</time>
      </trkpt>
      <trkpt lat="45.69487" lon="6.32987">
        <ele>1788</ele>
        <time>2021-08-02T19:32:08Z</time>
      </trkpt>
      <trkpt lat="45.69478" lon="6.32982">
        <ele>1783</ele>
        <time>2021-08-02T19:32:25Z</time>
      </trkpt>
      <trkpt lat="45.69472" lon="6.32979">
        <ele>1780</ele>
        <time>2021-08-02T19:32:37Z</time>
      </trkpt>
      <trkpt lat="45.69467" lon="6.32973">
        <ele>1778</ele>
        <time>2021-08-02T19:32:44Z</time>
      </trkpt>
      <trkpt lat="45.6945" lon="6.32962">
        <ele>1772</ele>
        <time>2021-08-02T19:33:06Z</time>
      </trkpt>
      <trkpt lat="45.69444" lon="6.32961">
        <ele>1770</ele>
        <time>2021-08-02T19:33:13Z</time>
      </trkpt>
      <trkpt lat="45.69438" lon="6.32954">
        <ele>1768</ele>
        <time>2021-08-02T19:33:21Z</time>
      </trkpt>
      <trkpt lat="45.69431" lon="6.32947">
        <ele>1762</ele>
        <time>2021-08-02T19:33:41Z</time>
      </trkpt>
      <trkpt lat="45.69424" lon="6.32931">
        <ele>1757</ele>
        <time>2021-08-02T19:34:00Z</time>
      </trkpt>
      <trkpt lat="45.69416" lon="6.32922">
        <ele>1753</ele>
        <time>2021-08-02T19:34:13Z</time>
      </trkpt>
      <trkpt lat="45.69401" lon="6.32911">
        <ele>1748</ele>
        <time>2021-08-02T19:34:29Z</time>
      </trkpt>
      <trkpt lat="45.69389" lon="6.32911">
        <ele>1748</ele>
        <time>2021-08-02T19:34:38Z</time>
      </trkpt>
      <trkpt lat="45.69382" lon="6.32913">
        <ele>1750</ele>
        <time>2021-08-02T19:34:43Z</time>
      </trkpt>
      <trkpt lat="45.69376" lon="6.32906">
        <ele>1751</ele>
        <time>2021-08-02T19:34:49Z</time>
      </trkpt>
      <trkpt lat="45.69362" lon="6.329">
        <ele>1755</ele>
        <time>2021-08-02T19:35:07Z</time>
      </trkpt>
      <trkpt lat="45.69357" lon="6.32898">
        <ele>1754</ele>
        <time>2021-08-02T19:35:12Z</time>
      </trkpt>
      <trkpt lat="45.6935" lon="6.32899">
        <ele>1754</ele>
        <time>2021-08-02T19:35:20Z</time>
      </trkpt>
      <trkpt lat="45.69339" lon="6.32889">
        <ele>1750</ele>
        <time>2021-08-02T19:35:32Z</time>
      </trkpt>
      <trkpt lat="45.69333" lon="6.32884">
        <ele>1750</ele>
        <time>2021-08-02T19:35:38Z</time>
      </trkpt>
      <trkpt lat="45.69325" lon="6.3288">
        <ele>1750</ele>
        <time>2021-08-02T19:35:49Z</time>
      </trkpt>
      <trkpt lat="45.69317" lon="6.32883">
        <ele>1747</ele>
        <time>2021-08-02T19:36:13Z</time>
      </trkpt>
      <trkpt lat="45.69306" lon="6.32877">
        <ele>1743</ele>
        <time>2021-08-02T19:36:26Z</time>
      </trkpt>
      <trkpt lat="45.69299" lon="6.32873">
        <ele>1742</ele>
        <time>2021-08-02T19:36:29Z</time>
      </trkpt>
      <trkpt lat="45.69291" lon="6.32871">
        <ele>1742</ele>
        <time>2021-08-02T19:36:33Z</time>
      </trkpt>
      <trkpt lat="45.69286" lon="6.32869">
        <ele>1742</ele>
        <time>2021-08-02T19:36:37Z</time>
      </trkpt>
      <trkpt lat="45.69276" lon="6.32866">
        <ele>1737</ele>
        <time>2021-08-02T19:37:02Z</time>
      </trkpt>
      <trkpt lat="45.69271" lon="6.32875">
        <ele>1731</ele>
        <time>2021-08-02T19:37:40Z</time>
      </trkpt>
      <trkpt lat="45.69266" lon="6.32869">
        <ele>1729</ele>
        <time>2021-08-02T19:37:47Z</time>
      </trkpt>
      <trkpt lat="45.69255" lon="6.32869">
        <ele>1727</ele>
        <time>2021-08-02T19:37:53Z</time>
      </trkpt>
      <trkpt lat="45.69246" lon="6.32869">
        <ele>1726</ele>
        <time>2021-08-02T19:37:57Z</time>
      </trkpt>
      <trkpt lat="45.6924" lon="6.32868">
        <ele>1727</ele>
        <time>2021-08-02T19:38:01Z</time>
      </trkpt>
      <trkpt lat="45.69233" lon="6.32873">
        <ele>1725</ele>
        <time>2021-08-02T19:38:11Z</time>
      </trkpt>
      <trkpt lat="45.69224" lon="6.32879">
        <ele>1723</ele>
        <time>2021-08-02T19:38:23Z</time>
      </trkpt>
      <trkpt lat="45.69203" lon="6.32885">
        <ele>1717</ele>
        <time>2021-08-02T19:38:51Z</time>
      </trkpt>
      <trkpt lat="45.69198" lon="6.32892">
        <ele>1716</ele>
        <time>2021-08-02T19:38:59Z</time>
      </trkpt>
      <trkpt lat="45.69193" lon="6.32891">
        <ele>1714</ele>
        <time>2021-08-02T19:39:16Z</time>
      </trkpt>
      <trkpt lat="45.69186" lon="6.32895">
        <ele>1711</ele>
        <time>2021-08-02T19:39:29Z</time>
      </trkpt>
      <trkpt lat="45.6917" lon="6.32894">
        <ele>1705</ele>
        <time>2021-08-02T19:39:50Z</time>
      </trkpt>
      <trkpt lat="45.69164" lon="6.32891">
        <ele>1703</ele>
        <time>2021-08-02T19:39:59Z</time>
      </trkpt>
      <trkpt lat="45.69154" lon="6.32888">
        <ele>1698</ele>
        <time>2021-08-02T19:40:17Z</time>
      </trkpt>
      <trkpt lat="45.69125" lon="6.32899">
        <ele>1690</ele>
        <time>2021-08-02T19:40:55Z</time>
      </trkpt>
      <trkpt lat="45.69132" lon="6.32886">
        <ele>1686</ele>
        <time>2021-08-02T19:41:13Z</time>
      </trkpt>
      <trkpt lat="45.69136" lon="6.32877">
        <ele>1683</ele>
        <time>2021-08-02T19:41:20Z</time>
      </trkpt>
      <trkpt lat="45.69126" lon="6.32877">
        <ele>1678</ele>
        <time>2021-08-02T19:41:43Z</time>
      </trkpt>
      <trkpt lat="45.69132" lon="6.3287">
        <ele>1671</ele>
        <time>2021-08-02T19:42:06Z</time>
      </trkpt>
      <trkpt lat="45.69132" lon="6.32858">
        <ele>1667</ele>
        <time>2021-08-02T19:42:19Z</time>
      </trkpt>
      <trkpt lat="45.69124" lon="6.32855">
        <ele>1665</ele>
        <time>2021-08-02T19:42:24Z</time>
      </trkpt>
      <trkpt lat="45.69109" lon="6.32851">
        <ele>1662</ele>
        <time>2021-08-02T19:42:33Z</time>
      </trkpt>
      <trkpt lat="45.69097" lon="6.32847">
        <ele>1658</ele>
        <time>2021-08-02T19:42:49Z</time>
      </trkpt>
      <trkpt lat="45.69086" lon="6.32848">
        <ele>1654</ele>
        <time>2021-08-02T19:43:03Z</time>
      </trkpt>
      <trkpt lat="45.69092" lon="6.32841">
        <ele>1650</ele>
        <time>2021-08-02T19:43:21Z</time>
      </trkpt>
      <trkpt lat="45.69087" lon="6.32825">
        <ele>1641</ele>
        <time>2021-08-02T19:43:52Z</time>
      </trkpt>
      <trkpt lat="45.69075" lon="6.32818">
        <ele>1637</ele>
        <time>2021-08-02T19:44:06Z</time>
      </trkpt>
      <trkpt lat="45.69069" lon="6.32818">
        <ele>1637</ele>
        <time>2021-08-02T19:44:09Z</time>
      </trkpt>
      <trkpt lat="45.69064" lon="6.32807">
        <ele>1631</ele>
        <time>2021-08-02T19:44:32Z</time>
      </trkpt>
      <trkpt lat="45.69059" lon="6.32799">
        <ele>1628</ele>
        <time>2021-08-02T19:44:44Z</time>
      </trkpt>
      <trkpt lat="45.69049" lon="6.328">
        <ele>1623</ele>
        <time>2021-08-02T19:45:09Z</time>
      </trkpt>
      <trkpt lat="45.69036" lon="6.32786">
        <ele>1619</ele>
        <time>2021-08-02T19:45:22Z</time>
      </trkpt>
      <trkpt lat="45.6902" lon="6.32766">
        <ele>1611</ele>
        <time>2021-08-02T19:45:44Z</time>
      </trkpt>
      <trkpt lat="45.69024" lon="6.32755">
        <ele>1607</ele>
        <time>2021-08-02T19:45:58Z</time>
      </trkpt>
      <trkpt lat="45.69032" lon="6.32752">
        <ele>1604</ele>
        <time>2021-08-02T19:46:06Z</time>
      </trkpt>
      <trkpt lat="45.69036" lon="6.32741">
        <ele>1602</ele>
        <time>2021-08-02T19:46:14Z</time>
      </trkpt>
      <trkpt lat="45.69023" lon="6.32725">
        <ele>1598</ele>
        <time>2021-08-02T19:46:28Z</time>
      </trkpt>
      <trkpt lat="45.69019" lon="6.32704">
        <ele>1588</ele>
        <time>2021-08-02T19:47:06Z</time>
      </trkpt>
      <trkpt lat="45.69004" lon="6.32695">
        <ele>1584</ele>
        <time>2021-08-02T19:47:22Z</time>
      </trkpt>
      <trkpt lat="45.69004" lon="6.3267">
        <ele>1571</ele>
        <time>2021-08-02T19:48:07Z</time>
      </trkpt>
      <trkpt lat="45.68977" lon="6.32647">
        <ele>1560</ele>
        <time>2021-08-02T19:48:54Z</time>
      </trkpt>
      <trkpt lat="45.68995" lon="6.32628">
        <ele>1549</ele>
        <time>2021-08-02T19:49:36Z</time>
      </trkpt>
      <trkpt lat="45.6898" lon="6.32556">
        <ele>1515</ele>
        <time>2021-08-02T19:51:41Z</time>
      </trkpt>
      <trkpt lat="45.68962" lon="6.32533">
        <ele>1507</ele>
        <time>2021-08-02T19:52:08Z</time>
      </trkpt>
      <trkpt lat="45.6896" lon="6.32513">
        <ele>1505</ele>
        <time>2021-08-02T19:52:18Z</time>
      </trkpt>
      <trkpt lat="45.68937" lon="6.32455">
        <ele>1496</ele>
        <time>2021-08-02T19:53:13Z</time>
      </trkpt>
      <trkpt lat="45.68923" lon="6.32439">
        <ele>1491</ele>
        <time>2021-08-02T19:53:29Z</time>
      </trkpt>
      <trkpt lat="45.68886" lon="6.32421">
        <ele>1480</ele>
        <time>2021-08-02T19:54:02Z</time>
      </trkpt>
      <trkpt lat="45.68875" lon="6.32407">
        <ele>1476</ele>
        <time>2021-08-02T19:54:14Z</time>
      </trkpt>
      <trkpt lat="45.68851" lon="6.32345">
        <ele>1459</ele>
        <time>2021-08-02T19:55:08Z</time>
      </trkpt>
      <trkpt lat="45.6884" lon="6.32324">
        <ele>1454</ele>
        <time>2021-08-02T19:55:27Z</time>
      </trkpt>
      <trkpt lat="45.68812" lon="6.32305">
        <ele>1449</ele>
        <time>2021-08-02T19:55:50Z</time>
      </trkpt>
      <trkpt lat="45.68797" lon="6.32308">
        <ele>1444</ele>
        <time>2021-08-02T19:56:10Z</time>
      </trkpt>
      <trkpt lat="45.68779" lon="6.323">
        <ele>1436</ele>
        <time>2021-08-02T19:56:39Z</time>
      </trkpt>
      <trkpt lat="45.68748" lon="6.32302">
        <ele>1429</ele>
        <time>2021-08-02T19:57:03Z</time>
      </trkpt>
      <trkpt lat="45.68738" lon="6.32286">
        <ele>1425</ele>
        <time>2021-08-02T19:57:17Z</time>
      </trkpt>
      <trkpt lat="45.68732" lon="6.32265">
        <ele>1419</ele>
        <time>2021-08-02T19:57:39Z</time>
      </trkpt>
      <trkpt lat="45.68745" lon="6.32252">
        <ele>1414</ele>
        <time>2021-08-02T19:58:18Z</time>
      </trkpt>
      <trkpt lat="45.68766" lon="6.32268">
        <ele>1413</ele>
        <time>2021-08-02T20:00:06Z</time>
      </trkpt>
      <trkpt lat="45.68807" lon="6.32255">
        <ele>1399</ele>
        <time>2021-08-02T20:00:51Z</time>
      </trkpt>
      <trkpt lat="45.68827" lon="6.32251">
        <ele>1393</ele>
        <time>2021-08-02T20:01:15Z</time>
      </trkpt>
      <trkpt lat="45.68828" lon="6.32225">
        <ele>1388</ele>
        <time>2021-08-02T20:01:39Z</time>
      </trkpt>
      <trkpt lat="45.68799" lon="6.32192">
        <ele>1374</ele>
        <time>2021-08-02T20:02:30Z</time>
      </trkpt>
      <trkpt lat="45.68768" lon="6.32175">
        <ele>1360</ele>
        <time>2021-08-02T20:03:18Z</time>
      </trkpt>
      <trkpt lat="45.68743" lon="6.32157">
        <ele>1356</ele>
        <time>2021-08-02T20:03:35Z</time>
      </trkpt>
      <trkpt lat="45.68758" lon="6.3212">
        <ele>1328</ele>
        <time>2021-08-02T20:05:34Z</time>
      </trkpt>
      <trkpt lat="45.68784" lon="6.32101">
        <ele>1320</ele>
        <time>2021-08-02T20:06:04Z</time>
      </trkpt>
      <trkpt lat="45.68778" lon="6.32061">
        <ele>1304</ele>
        <time>2021-08-02T20:06:45Z</time>
      </trkpt>
      <trkpt lat="45.68746" lon="6.3205">
        <ele>1293</ele>
        <time>2021-08-02T20:07:19Z</time>
      </trkpt>
      <trkpt lat="45.687" lon="6.32041">
        <ele>1283</ele>
        <time>2021-08-02T20:08:29Z</time>
      </trkpt>
      <trkpt lat="45.6867" lon="6.32033">
        <ele>1267</ele>
        <time>2021-08-02T20:09:15Z</time>
      </trkpt>
      <trkpt lat="45.68636" lon="6.32014">
        <ele>1253</ele>
        <time>2021-08-02T20:10:04Z</time>
      </trkpt>
      <trkpt lat="45.68663" lon="6.31976">
        <ele>1236</ele>
        <time>2021-08-02T20:10:58Z</time>
      </trkpt>
      <trkpt lat="45.68632" lon="6.31974">
        <ele>1222</ele>
        <time>2021-08-02T20:11:39Z</time>
      </trkpt>
      <trkpt lat="45.68586" lon="6.31955">
        <ele>1206</ele>
        <time>2021-08-02T20:12:33Z</time>
      </trkpt>
      <trkpt lat="45.68558" lon="6.31945">
        <ele>1200</ele>
        <time>2021-08-02T20:12:55Z</time>
      </trkpt>
      <trkpt lat="45.6853" lon="6.31929">
        <ele>1192</ele>
        <time>2021-08-02T20:13:32Z</time>
      </trkpt>
      <trkpt lat="45.68498" lon="6.3192">
        <ele>1178</ele>
        <time>2021-08-02T20:14:18Z</time>
      </trkpt>
      <trkpt lat="45.68464" lon="6.3191">
        <ele>1166</ele>
        <time>2021-08-02T20:15:01Z</time>
      </trkpt>
      <trkpt lat="45.68433" lon="6.31924">
        <ele>1159</ele>
        <time>2021-08-02T20:15:27Z</time>
      </trkpt>
      <trkpt lat="45.68375" lon="6.31904">
        <ele>1147</ele>
        <time>2021-08-02T20:16:09Z</time>
      </trkpt>
      <trkpt lat="45.68347" lon="6.31914">
        <ele>1140</ele>
        <time>2021-08-02T20:16:31Z</time>
      </trkpt>
      <trkpt lat="45.68319" lon="6.31909">
        <ele>1131</ele>
        <time>2021-08-02T20:16:58Z</time>
      </trkpt>
      <trkpt lat="45.68289" lon="6.31919">
        <ele>1122</ele>
        <time>2021-08-02T20:17:42Z</time>
      </trkpt>
      <trkpt lat="45.68254" lon="6.31913">
        <ele>1105</ele>
        <time>2021-08-02T20:19:20Z</time>
      </trkpt>
      <trkpt lat="45.68222" lon="6.31908">
        <ele>1095</ele>
        <time>2021-08-02T20:20:15Z</time>
      </trkpt>
      <trkpt lat="45.68192" lon="6.31937">
        <ele>1095</ele>
        <time>2021-08-02T20:21:31Z</time>
      </trkpt>
      <trkpt lat="45.68162" lon="6.31929">
        <ele>1093</ele>
        <time>2021-08-02T20:21:46Z</time>
      </trkpt>
      <trkpt lat="45.68129" lon="6.3191">
        <ele>1090</ele>
        <time>2021-08-02T20:22:03Z</time>
      </trkpt>
      <trkpt lat="45.68067" lon="6.31908">
        <ele>1082</ele>
        <time>2021-08-02T20:22:46Z</time>
      </trkpt>
      <trkpt lat="45.68027" lon="6.31921">
        <ele>1075</ele>
        <time>2021-08-02T20:23:17Z</time>
      </trkpt>
      <trkpt lat="45.68008" lon="6.31928">
        <ele>1071</ele>
        <time>2021-08-02T20:23:32Z</time>
      </trkpt>
      <trkpt lat="45.67997" lon="6.31943">
        <ele>1069</ele>
        <time>2021-08-02T20:23:43Z</time>
      </trkpt>
      <trkpt lat="45.6799" lon="6.31945">
        <ele>1068</ele>
        <time>2021-08-02T20:23:49Z</time>
      </trkpt>
      <trkpt lat="45.67976" lon="6.31938">
        <ele>1066</ele>
        <time>2021-08-02T20:24:00Z</time>
      </trkpt>
      <trkpt lat="45.67967" lon="6.31937">
        <ele>1065</ele>
        <time>2021-08-02T20:24:08Z</time>
      </trkpt>
      <trkpt lat="45.67959" lon="6.31937">
        <ele>1064</ele>
        <time>2021-08-02T20:24:12Z</time>
      </trkpt>
      <trkpt lat="45.67943" lon="6.3193">
        <ele>1063</ele>
        <time>2021-08-02T20:24:21Z</time>
      </trkpt>
      <trkpt lat="45.67922" lon="6.31931">
        <ele>1057</ele>
        <time>2021-08-02T20:24:42Z</time>
      </trkpt>
      <trkpt lat="45.67899" lon="6.31927">
        <ele>1059</ele>
        <time>2021-08-02T20:25:03Z</time>
      </trkpt>
      <trkpt lat="45.67874" lon="6.31901">
        <ele>1061</ele>
        <time>2021-08-02T20:25:27Z</time>
      </trkpt>
      <trkpt lat="45.67842" lon="6.31887">
        <ele>1060</ele>
        <time>2021-08-02T20:26:01Z</time>
      </trkpt>
      <trkpt lat="45.67827" lon="6.3188">
        <ele>1059</ele>
        <time>2021-08-02T20:26:11Z</time>
      </trkpt>
      <trkpt lat="45.67815" lon="6.31867">
        <ele>1056</ele>
        <time>2021-08-02T20:26:22Z</time>
      </trkpt>
      <trkpt lat="45.67803" lon="6.31856">
        <ele>1055</ele>
        <time>2021-08-02T20:26:33Z</time>
      </trkpt>
      <trkpt lat="45.67788" lon="6.31846">
        <ele>1052</ele>
        <time>2021-08-02T20:26:44Z</time>
      </trkpt>
      <trkpt lat="45.6778" lon="6.31803">
        <ele>1047</ele>
        <time>2021-08-02T20:27:03Z</time>
      </trkpt>
      <trkpt lat="45.67758" lon="6.31767">
        <ele>1044</ele>
        <time>2021-08-02T20:27:29Z</time>
      </trkpt>
      <trkpt lat="45.67755" lon="6.31692">
        <ele>1036</ele>
        <time>2021-08-02T20:28:03Z</time>
      </trkpt>
      <trkpt lat="45.67753" lon="6.3165">
        <ele>1031</ele>
        <time>2021-08-02T20:28:26Z</time>
      </trkpt>
      <trkpt lat="45.67735" lon="6.31569">
        <ele>1018</ele>
        <time>2021-08-02T20:29:11Z</time>
      </trkpt>
      <trkpt lat="45.67762" lon="6.31508">
        <ele>999</ele>
        <time>2021-08-02T20:30:06Z</time>
      </trkpt>
      <trkpt lat="45.67792" lon="6.31499">
        <ele>991</ele>
        <time>2021-08-02T20:30:33Z</time>
      </trkpt>
      <trkpt lat="45.67825" lon="6.31477">
        <ele>983</ele>
        <time>2021-08-02T20:31:02Z</time>
      </trkpt>
      <trkpt lat="45.67831" lon="6.31443">
        <ele>978</ele>
        <time>2021-08-02T20:31:23Z</time>
      </trkpt>
      <trkpt lat="45.67826" lon="6.31395">
        <ele>976</ele>
        <time>2021-08-02T20:31:38Z</time>
      </trkpt>
    </trkseg>
  </trk>
  <rte>
    <name><![CDATA[4 avr. 2019 à 23:11:12]]></name>
    <cmt><![CDATA[4 avr. 2019 à 23:11:12]]></cmt>
    <desc><![CDATA[{DC1}Heure de fin	: 
Durée totale	: 0h00:00
Moyenne globale	: -
Pente moyenne	: 0.00 %
Aire incluse	: 7.4932 ha
Détails par segments
distance  | durée    | vit.moy. | vit.max. | déniv. + | déniv -
   km     | hh:mn:ss |   km/h   |   km/h   |    m     |    m
     0.81 | 00:00:00 |      0.0 |      0.0 |        0 |        0{DC2}]]></desc>
      <rtept lat="45.60077" lon="6.18221">
        <ele>1608.6</ele>
      </rtept>
      <rtept lat="45.59468" lon="6.1822">
        <ele>1760.9</ele>
      </rtept>
      <rtept lat="45.59468" lon="6.1822">
        <ele>1760.9</ele>
      </rtept>
    </rte>
  <rte>
    <name><![CDATA[10 févr. 2019 à 15:16:12]]></name>
    <cmt><![CDATA[10 févr. 2019 à 15:16:12]]></cmt>
    <desc><![CDATA[{DC1}Heure de fin	: 00:09:21
Durée totale	: -17690439h43:48
Moyenne globale	: -
Pente moyenne	: 7.00 %
Aire incluse	: 221.0936 ha
Détails par segments
distance  | durée    | vit.moy. | vit.max. | déniv. + | déniv -
   km     | hh:mn:ss |   km/h   |   km/h   |    m     |    m
     7.48 | 00:00:00 |      0.0 |      0.0 |        0 |        0{DC2}]]></desc>
      <rtept lat="45.55203" lon="5.93805">
        <ele>376</ele>
      </rtept>
      <rtept lat="45.55177" lon="5.93873">
        <ele>369</ele>
      </rtept>
      <rtept lat="45.55176" lon="5.93942">
        <ele>367</ele>
      </rtept>
      <rtept lat="45.55105" lon="5.93942">
        <ele>367</ele>
      </rtept>
      <rtept lat="45.54993" lon="5.93908">
        <ele>371</ele>
      </rtept>
      <rtept lat="45.54929" lon="5.94099">
        <ele>370</ele>
      </rtept>
      <rtept lat="45.54908" lon="5.94204">
        <ele>367</ele>
      </rtept>
      <rtept lat="45.54991" lon="5.94287">
        <ele>365</ele>
      </rtept>
      <rtept lat="45.5506" lon="5.94384">
        <ele>361</ele>
      </rtept>
      <rtept lat="45.55147" lon="5.94384">
        <ele>357</ele>
      </rtept>
      <rtept lat="45.55129" lon="5.94607">
        <ele>358</ele>
      </rtept>
      <rtept lat="45.55029" lon="5.94809">
        <ele>355</ele>
      </rtept>
      <rtept lat="45.54884" lon="5.94886">
        <ele>346</ele>
      </rtept>
      <rtept lat="45.5477" lon="5.94931">
        <ele>342</ele>
      </rtept>
      <rtept lat="45.5468" lon="5.95004">
        <ele>339</ele>
      </rtept>
      <rtept lat="45.54596" lon="5.95133">
        <ele>340</ele>
      </rtept>
      <rtept lat="45.54446" lon="5.95195">
        <ele>343</ele>
      </rtept>
      <rtept lat="45.543" lon="5.95262">
        <ele>344</ele>
      </rtept>
      <rtept lat="45.54156" lon="5.95212">
        <ele>337</ele>
      </rtept>
      <rtept lat="45.54041" lon="5.95204">
        <ele>338</ele>
      </rtept>
      <rtept lat="45.53917" lon="5.95141">
        <ele>343</ele>
      </rtept>
      <rtept lat="45.53844" lon="5.95135">
        <ele>347</ele>
      </rtept>
      <rtept lat="45.53765" lon="5.9503">
        <ele>349</ele>
      </rtept>
      <rtept lat="45.5381" lon="5.94993">
        <ele>352</ele>
      </rtept>
      <rtept lat="45.53781" lon="5.94901">
        <ele>358</ele>
      </rtept>
      <rtept lat="45.53711" lon="5.94845">
        <ele>365</ele>
      </rtept>
      <rtept lat="45.53702" lon="5.94764">
        <ele>369</ele>
      </rtept>
      <rtept lat="45.53817" lon="5.94807">
        <ele>376</ele>
      </rtept>
      <rtept lat="45.53865" lon="5.94633">
        <ele>389</ele>
      </rtept>
      <rtept lat="45.53778" lon="5.94491">
        <ele>408</ele>
      </rtept>
      <rtept lat="45.53757" lon="5.94371">
        <ele>425</ele>
      </rtept>
      <rtept lat="45.53775" lon="5.94279">
        <ele>434</ele>
      </rtept>
      <rtept lat="45.53726" lon="5.94227">
        <ele>442</ele>
      </rtept>
      <rtept lat="45.53572" lon="5.94146">
        <ele>468</ele>
      </rtept>
      <rtept lat="45.53664" lon="5.94039">
        <ele>483</ele>
      </rtept>
      <rtept lat="45.53532" lon="5.93983">
        <ele>505</ele>
      </rtept>
      <rtept lat="45.53416" lon="5.93985">
        <ele>516</ele>
      </rtept>
      <rtept lat="45.5355" lon="5.93869">
        <ele>532</ele>
      </rtept>
      <rtept lat="45.5359" lon="5.93845">
        <ele>537</ele>
      </rtept>
      <rtept lat="45.5355" lon="5.93802">
        <ele>544</ele>
      </rtept>
      <rtept lat="45.53724" lon="5.93554">
        <ele>587</ele>
      </rtept>
      <rtept lat="45.53691" lon="5.93339">
        <ele>592</ele>
      </rtept>
      <rtept lat="45.5376" lon="5.93178">
        <ele>575</ele>
      </rtept>
      <rtept lat="45.53843" lon="5.93069">
        <ele>555</ele>
      </rtept>
      <rtept lat="45.53939" lon="5.93157">
        <ele>541</ele>
      </rtept>
      <rtept lat="45.54068" lon="5.93234">
        <ele>522</ele>
      </rtept>
      <rtept lat="45.54219" lon="5.93247">
        <ele>514</ele>
      </rtept>
      <rtept lat="45.54355" lon="5.93232">
        <ele>512</ele>
      </rtept>
      <rtept lat="45.54489" lon="5.9326">
        <ele>508</ele>
      </rtept>
      <rtept lat="45.54636" lon="5.93249">
        <ele>510</ele>
      </rtept>
      <rtept lat="45.54758" lon="5.93249">
        <ele>510</ele>
      </rtept>
      <rtept lat="45.54818" lon="5.93298">
        <ele>507</ele>
      </rtept>
      <rtept lat="45.54796" lon="5.93418">
        <ele>496</ele>
      </rtept>
      <rtept lat="45.5491" lon="5.93433">
        <ele>483</ele>
      </rtept>
      <rtept lat="45.55126" lon="5.9341">
        <ele>463</ele>
      </rtept>
      <rtept lat="45.55256" lon="5.93453">
        <ele>444</ele>
      </rtept>
      <rtept lat="45.55329" lon="5.93558">
        <ele>430</ele>
      </rtept>
      <rtept lat="45.55222" lon="5.93642">
        <ele>415</ele>
      </rtept>
      <rtept lat="45.55195" lon="5.93811">
        <ele>375</ele>
      </rtept>
    </rte>
  <rte>
    <name><![CDATA[10 févr. 2019 à 15:15:48]]></name>
    <cmt><![CDATA[10 févr. 2019 à 15:15:48]]></cmt>
    <desc><![CDATA[{DC1}Heure de fin	: 00:09:21
Durée totale	: -17690439h44:12
Moyenne globale	: -
Pente moyenne	: nan %
Aire incluse	: 0.0000 ha
Détails par segments
distance  | durée    | vit.moy. | vit.max. | déniv. + | déniv -
   km     | hh:mn:ss |   km/h   |   km/h   |    m     |    m
     0.00 | 00:00:00 |      0.0 |      0.0 |        0 |        0{DC2}]]></desc>
      <rtept lat="45.5175" lon="5.93483">
        <ele>732.3</ele>
      </rtept>
    </rte>
  <rte>
    <name><![CDATA[10 févr. 2019 à 15:06:08]]></name>
    <cmt><![CDATA[10 févr. 2019 à 15:06:08]]></cmt>
    <desc><![CDATA[{DC1}Heure de fin	: 
Durée totale	: 0h00:00
Moyenne globale	: -
Pente moyenne	: 8.03 %
Aire incluse	: 204.0794 ha
Détails par segments
distance  | durée    | vit.moy. | vit.max. | déniv. + | déniv -
   km     | hh:mn:ss |   km/h   |   km/h   |    m     |    m
    12.88 | 00:00:00 |      0.0 |      0.0 |        0 |        0{DC2}]]></desc>
      <rtept lat="45.5509" lon="5.9394">
        <ele>368</ele>
      </rtept>
      <rtept lat="45.55217" lon="5.93791">
        <ele>377</ele>
      </rtept>
    </rte>
  <rte>
    <name><![CDATA[10 févr. 2019 à 14:22:06]]></name>
    <cmt><![CDATA[10 févr. 2019 à 14:22:06]]></cmt>
    <desc><![CDATA[{DC1}Heure de fin	: 00:09:21
Durée totale	: -17690438h37:54
Moyenne globale	: -
Pente moyenne	: 5.62 %
Aire incluse	: 5.7967 ha
Détails par segments
distance  | durée    | vit.moy. | vit.max. | déniv. + | déniv -
   km     | hh:mn:ss |   km/h   |   km/h   |    m     |    m
     3.30 | 00:00:00 |      0.0 |      0.0 |        0 |        0{DC2}]]></desc>
      <rtept lat="45.55169" lon="5.93089">
        <ele>415</ele>
      </rtept>
      <rtept lat="45.5518" lon="5.93905">
        <ele>366</ele>
      </rtept>
    </rte>
  <rte>
    <name><![CDATA[10 févr. 2019 à 09:50:45]]></name>
    <cmt><![CDATA[10 févr. 2019 à 09:50:45]]></cmt>
    <desc><![CDATA[{DC1}Heure de fin	: 00:09:21
Durée totale	: -17690433h09:14
Moyenne globale	: -
Pente moyenne	: 0.00 %
Aire incluse	: 50.7119 ha
Détails par segments
distance  | durée    | vit.moy. | vit.max. | déniv. + | déniv -
   km     | hh:mn:ss |   km/h   |   km/h   |    m     |    m
     4.33 | 00:00:00 |      0.0 |      0.0 |        0 |        0{DC2}]]></desc>
      <rtept lat="45.5503" lon="5.93918">
        <ele>373.6</ele>
      </rtept>
      <rtept lat="45.55191" lon="5.93893">
        <ele>366.7</ele>
      </rtept>
    </rte>
  <rte>
    <name><![CDATA[10 févr. 2019 à 09:07:08]]></name>
    <cmt><![CDATA[10 févr. 2019 à 09:07:08]]></cmt>
    <desc><![CDATA[{DC1}Heure de fin	: 00:09:21
Durée totale	: -17690433h52:52
Moyenne globale	: -
Pente moyenne	: nan %
Aire incluse	: 0.0000 ha
Détails par segments
distance  | durée    | vit.moy. | vit.max. | déniv. + | déniv -
   km     | hh:mn:ss |   km/h   |   km/h   |    m     |    m
     0.00 | 00:00:00 |      0.0 |      0.0 |        0 |        0{DC2}]]></desc>
      <rtept lat="45.55102" lon="5.93919">
        <ele>370.1</ele>
      </rtept>
    </rte>
  <rte>
    <name><![CDATA[10 févr. 2019 à 09:02:25]]></name>
    <cmt><![CDATA[10 févr. 2019 à 09:02:25]]></cmt>
    <desc><![CDATA[{DC1}Heure de fin	: 00:09:21
Durée totale	: -17690433h57:35
Moyenne globale	: -
Pente moyenne	: nan %
Aire incluse	: 0.0000 ha
Détails par segments
distance  | durée    | vit.moy. | vit.max. | déniv. + | déniv -
   km     | hh:mn:ss |   km/h   |   km/h   |    m     |    m
     0.00 | 00:00:00 |      0.0 |      0.0 |        0 |        0{DC2}]]></desc>
      <rtept lat="45.55207" lon="5.93813">
        <ele>375.2</ele>
      </rtept>
    </rte>
  <rte>
    <name><![CDATA[10 févr. 2019 à 09:00:27]]></name>
    <cmt><![CDATA[10 févr. 2019 à 09:00:27]]></cmt>
    <desc><![CDATA[{DC1}Heure de fin	: 00:09:21
Durée totale	: -17690433h59:32
Moyenne globale	: -
Pente moyenne	: nan %
Aire incluse	: 0.0000 ha
Détails par segments
distance  | durée    | vit.moy. | vit.max. | déniv. + | déniv -
   km     | hh:mn:ss |   km/h   |   km/h   |    m     |    m
     0.00 | 00:00:00 |      0.0 |      0.0 |        0 |        0{DC2}]]></desc>
      <rtept lat="45.55244" lon="5.93858">
        <ele>366.6</ele>
      </rtept>
    </rte>
</gpx>